Nebo, North Carolina
Current Conditions -  °F | °C
As of 11:55 AM on Monday 22 Dec 2014 (Local Time) from KFQD Reporting Station
Overcast Overcast  
Wind Chill: 36°   Ceiling: 1600
Heat Index: 41°   Visibility: 10mi
Dew Point: 38°   Wind: 7mph
Humidity: 90%   Direction: 20°NNE
Pressure: 30.09"   Gusts: NA
Location:  35.67°N, 81.9°W
Report Text: KFQD 221655Z AUTO 02006KT 10SM SCT010 OVC016 05/03 A3009 RMK AO2 T00480033
Loading
Personal Weather Stations






























Interactive Weather Map New forecast layout! Learn more

10-Day Weather Forecast

Advertisements
Track Severe Weather on mobile